createdAt,value
2018-12-20T00:03:33.735Z,100253.22
2018-12-20T00:08:36.080Z,100250.91
2018-12-20T00:13:38.697Z,100249.18
2018-12-20T00:18:41.264Z,100242.16
2018-12-20T00:23:43.755Z,100255.40
2018-12-20T00:28:46.207Z,100244.77
2018-12-20T00:33:49.238Z,100251.56
2018-12-20T00:38:51.827Z,100257.21
2018-12-20T00:43:54.292Z,100259.70
2018-12-20T00:48:57.348Z,100256.61
2018-12-20T00:53:59.683Z,100247.33
2018-12-20T00:59:02.209Z,100246.47
2018-12-20T01:04:04.744Z,100238.61
2018-12-20T01:09:07.996Z,100256.95
2018-12-20T01:14:10.421Z,100257.87
2018-12-20T01:19:13.996Z,100263.06
2018-12-20T01:24:16.912Z,100277.84
2018-12-20T01:29:19.377Z,100267.13
2018-12-20T01:34:21.763Z,100267.53
2018-12-20T01:39:24.277Z,100281.58
2018-12-20T01:44:26.931Z,100281.03
2018-12-20T01:49:29.550Z,100276.00
2018-12-20T01:54:32.022Z,100289.25
2018-12-20T01:59:34.680Z,100290.17
2018-12-20T02:04:37.112Z,100284.95
2018-12-20T02:09:39.597Z,100268.96
2018-12-20T02:14:42.519Z,100277.67
2018-12-20T02:19:45.330Z,100275.44
2018-12-20T02:24:47.792Z,100282.95
2018-12-20T02:29:50.251Z,100280.89
2018-12-20T02:34:53.417Z,100272.14
2018-12-20T02:39:56.306Z,100264.77
2018-12-20T02:44:58.726Z,100260.10
2018-12-20T02:50:01.282Z,100269.62
2018-12-20T02:55:04.579Z,100256.92
2018-12-20T03:00:08.414Z,100248.55
2018-12-20T03:05:11.175Z,100258.70
2018-12-20T03:10:14.826Z,100244.71
2018-12-20T03:15:20.113Z,100234.85
2018-12-20T03:20:21.592Z,100231.41
2018-12-20T03:25:23.954Z,100235.86
2018-12-20T03:30:26.589Z,100235.80
2018-12-20T03:35:29.167Z,100223.53
2018-12-20T03:40:31.746Z,100226.94
2018-12-20T03:45:34.315Z,100224.70
2018-12-20T03:50:36.769Z,100226.02
2018-12-20T03:55:39.408Z,100228.26
2018-12-20T04:00:42.072Z,100219.48
2018-12-20T04:05:44.788Z,100218.31
2018-12-20T04:10:47.512Z,100229.38
2018-12-20T04:15:49.945Z,100237.69
2018-12-20T04:20:52.765Z,100239.41
2018-12-20T04:25:55.251Z,100244.08
2018-12-20T04:30:57.996Z,100241.84
2018-12-20T04:36:00.369Z,100244.60
2018-12-20T04:41:02.867Z,100244.17
2018-12-20T04:46:05.253Z,100243.31
2018-12-20T04:51:07.677Z,100241.98
2018-12-20T04:56:10.318Z,100245.92
2018-12-20T05:01:12.978Z,100254.77
2018-12-20T05:06:15.992Z,100249.04
2018-12-20T05:11:18.425Z,100249.50
2018-12-20T05:16:21.214Z,100248.58
2018-12-20T05:21:23.761Z,100246.78
2018-12-20T05:26:26.864Z,100246.20
2018-12-20T05:31:29.342Z,100244.73
2018-12-20T05:36:31.768Z,100242.02
2018-12-20T05:41:35.032Z,100241.34
2018-12-20T05:46:37.442Z,100240.75
2018-12-20T05:51:40.068Z,100238.52
2018-12-20T05:56:43.549Z,100242.01
2018-12-20T06:01:45.925Z,100243.97
2018-12-20T06:06:48.413Z,100250.33
2018-12-20T06:11:50.998Z,100249.55
2018-12-20T06:16:53.447Z,100252.62
2018-12-20T06:21:55.802Z,100247.06
2018-12-20T06:26:58.521Z,100261.06
2018-12-20T06:32:00.917Z,100258.33
2018-12-20T06:37:03.552Z,100262.84
2018-12-20T06:42:06.132Z,100271.93
2018-12-20T06:47:08.644Z,100275.03
2018-12-20T06:52:11.077Z,100270.15
2018-12-20T06:57:13.387Z,100272.39
2018-12-20T07:02:15.808Z,100266.95
2018-12-20T07:07:18.439Z,100267.80
2018-12-20T07:12:20.798Z,100262.69
2018-12-20T07:17:23.241Z,100263.16
2018-12-20T07:22:25.564Z,100266.20
2018-12-20T07:27:28.638Z,100271.31
2018-12-20T07:32:31.008Z,100272.30
2018-12-20T07:37:33.342Z,100273.16
2018-12-20T07:42:35.755Z,100278.38
2018-12-20T07:47:38.082Z,100283.33
2018-12-20T07:52:40.860Z,100286.93
2018-12-20T07:57:43.403Z,100286.53
2018-12-20T08:02:45.954Z,100283.03
2018-12-20T08:07:48.889Z,100293.53
2018-12-20T08:12:51.203Z,100295.84
2018-12-20T08:17:53.530Z,100311.02
2018-12-20T08:22:56.493Z,100320.72
2018-12-20T08:27:58.969Z,100319.17
2018-12-20T08:33:01.462Z,100333.55
2018-12-20T08:38:04.007Z,100336.52
2018-12-20T08:43:06.365Z,100341.38
2018-12-20T08:48:09.061Z,100348.09
2018-12-20T08:53:11.461Z,100361.89
2018-12-20T08:58:14.098Z,100366.98
2018-12-20T09:03:16.677Z,100375.22
2018-12-20T09:08:19.649Z,100369.14
2018-12-20T09:13:22.721Z,100374.66
2018-12-20T09:18:25.105Z,100380.58
2018-12-20T09:23:27.646Z,100388.44
2018-12-20T09:28:30.157Z,100385.41
2018-12-20T09:33:32.590Z,100385.90
2018-12-20T09:38:35.794Z,100391.69
2018-12-20T09:43:38.352Z,100389.91
2018-12-20T09:48:40.734Z,100386.50
2018-12-20T09:53:43.025Z,100395.39
2018-12-20T09:58:45.391Z,100393.20
2018-12-20T10:03:47.764Z,100390.77
2018-12-20T10:08:50.697Z,100395.29
2018-12-20T10:13:53.117Z,100395.06
2018-12-20T10:18:55.914Z,100381.34
2018-12-20T10:23:58.279Z,100376.84
2018-12-20T10:29:00.644Z,100372.18
2018-12-20T10:34:03.304Z,100372.30
2018-12-20T10:39:06.783Z,100364.90
2018-12-20T10:44:09.533Z,100364.50
2018-12-20T10:49:12.395Z,100360.80
2018-12-20T10:54:14.747Z,100350.41
2018-12-20T10:59:17.114Z,100349.65
2018-12-20T11:04:25.224Z,100350.36
2018-12-20T11:09:33.619Z,100351.45
2018-12-20T11:14:36.407Z,100348.73
2018-12-20T11:19:38.799Z,100343.21
2018-12-20T11:24:41.193Z,100346.42
2018-12-20T11:29:44.197Z,100340.92
2018-12-20T11:34:46.545Z,100332.30
2018-12-20T11:39:48.912Z,100333.20
2018-12-20T11:44:51.222Z,100321.50
2018-12-20T11:49:53.558Z,100330.62
2018-12-20T11:54:56.330Z,100325.55
2018-12-20T11:59:58.721Z,100326.48
2018-12-20T12:05:01.244Z,100325.05
2018-12-20T12:10:05.487Z,100325.84
2018-12-20T12:15:08.084Z,100318.27
2018-12-20T12:20:10.491Z,100318.59
2018-12-20T12:25:13.026Z,100324.59
2018-12-20T12:30:15.508Z,100327.78
2018-12-20T12:35:17.835Z,100326.45
2018-12-20T12:40:20.653Z,100326.59
2018-12-20T12:45:23.067Z,100324.56
2018-12-20T12:50:25.905Z,100324.85
2018-12-20T12:55:28.635Z,100326.11
2018-12-20T13:00:31.104Z,100327.78
2018-12-20T13:05:33.494Z,100325.59
2018-12-20T13:10:35.881Z,100329.24
2018-12-20T13:15:38.290Z,100328.84
2018-12-20T13:20:40.653Z,100320.02
2018-12-20T13:25:43.060Z,100326.45
2018-12-20T13:30:45.465Z,100324.34
2018-12-20T13:35:47.781Z,100334.53
2018-12-20T13:40:50.085Z,100333.70
2018-12-20T13:45:52.830Z,100335.78
2018-12-20T13:50:55.228Z,100335.89
2018-12-20T13:55:57.894Z,100331.70
2018-12-20T14:01:00.437Z,100336.81
2018-12-20T14:06:02.963Z,100338.03
2018-12-20T14:11:05.924Z,100340.44
2018-12-20T14:16:08.584Z,100344.19
2018-12-20T14:21:11.955Z,100343.72
2018-12-20T14:26:14.462Z,100342.33
2018-12-20T14:31:16.793Z,100346.95
2018-12-20T14:36:19.406Z,100351.81
2018-12-20T14:41:21.905Z,100351.64
2018-12-20T14:46:24.229Z,100354.45
2018-12-20T14:51:26.666Z,100352.23
2018-12-20T14:56:29.297Z,100349.70
2018-12-20T15:01:31.553Z,100355.09
2018-12-20T15:06:35.627Z,100355.23
2018-12-20T15:11:38.212Z,100352.87
2018-12-20T15:16:41.428Z,100352.81
2018-12-20T15:21:43.791Z,100356.78
2018-12-20T15:26:46.125Z,100356.93
2018-12-20T15:31:53.297Z,100357.56
2018-12-20T15:36:53.305Z,100367.02
2018-12-20T15:41:55.997Z,100368.58
2018-12-20T15:46:58.351Z,100365.76
2018-12-20T15:52:00.749Z,100384.71
2018-12-20T15:57:03.266Z,100382.89
2018-12-20T16:02:05.882Z,100382.38
2018-12-20T16:07:08.636Z,100381.34
2018-12-20T16:12:11.010Z,100384.61
2018-12-20T16:17:13.362Z,100395.36
2018-12-20T16:22:15.859Z,100395.72
2018-12-20T16:27:18.185Z,100393.72
2018-12-20T16:32:20.577Z,100402.98
2018-12-20T16:37:22.953Z,100404.47
2018-12-20T16:42:25.289Z,100415.55
2018-12-20T16:47:27.620Z,100414.06
2018-12-20T16:52:30.184Z,100429.64
2018-12-20T16:57:32.582Z,100421.13
2018-12-20T17:02:34.993Z,100426.73
2018-12-20T17:07:37.556Z,100432.45
2018-12-20T17:12:39.945Z,100431.55
2018-12-20T17:17:42.274Z,100431.49
2018-12-20T17:22:44.697Z,100441.51
2018-12-20T17:27:47.449Z,100437.87
2018-12-20T17:32:49.954Z,100441.34
2018-12-20T17:37:52.329Z,100444.31
2018-12-20T17:42:54.718Z,100449.22
2018-12-20T17:47:57.206Z,100449.14
2018-12-20T17:52:59.866Z,100456.59
2018-12-20T17:58:02.346Z,100462.91
2018-12-20T18:03:05.320Z,100451.86
2018-12-20T18:08:07.679Z,100457.45
2018-12-20T18:13:10.090Z,100458.20
2018-12-20T18:18:12.811Z,100466.74
2018-12-20T18:23:15.300Z,100463.30
2018-12-20T18:28:17.839Z,100460.09
2018-12-20T18:33:20.290Z,100460.72
2018-12-20T18:38:23.370Z,100458.97
2018-12-20T18:43:25.891Z,100460.26
2018-12-20T18:48:29.277Z,100464.27
2018-12-20T18:53:31.811Z,100470.67
2018-12-20T18:58:34.379Z,100478.66
2018-12-20T19:03:37.017Z,100481.92
2018-12-20T19:08:39.531Z,100476.70
2018-12-20T19:13:42.111Z,100472.20
2018-12-20T19:18:44.520Z,100483.52
2018-12-20T19:23:47.002Z,100480.23
2018-12-20T19:28:49.374Z,100476.30
2018-12-20T19:33:52.246Z,100469.45
2018-12-20T19:38:54.792Z,100470.71
2018-12-20T19:43:57.138Z,100477.45
2018-12-20T19:48:59.547Z,100478.02
2018-12-20T19:54:02.114Z,100472.13
2018-12-20T19:59:04.814Z,100472.73
2018-12-20T20:04:08.134Z,100475.14
2018-12-20T20:09:10.629Z,100477.09
2018-12-20T20:14:13.244Z,100463.41
2018-12-20T20:19:15.595Z,100455.83
2018-12-20T20:24:18.176Z,100458.91
2018-12-20T20:29:20.542Z,100465.78
2018-12-20T20:34:22.976Z,100459.34
2018-12-20T20:39:25.399Z,100450.02
2018-12-20T20:44:28.111Z,100451.10
2018-12-20T20:49:30.548Z,100448.22
2018-12-20T20:54:32.960Z,100456.75
2018-12-20T20:59:35.621Z,100455.95
2018-12-20T21:04:37.978Z,100443.91
2018-12-20T21:09:40.547Z,100455.95
2018-12-20T21:14:42.990Z,100449.50
2018-12-20T21:19:45.430Z,100453.47
2018-12-20T21:24:47.889Z,100458.66
2018-12-20T21:29:50.338Z,100467.73
2018-12-20T21:34:53.468Z,100461.94
2018-12-20T21:39:56.647Z,100464.69
2018-12-20T21:44:59.034Z,100462.27
2018-12-20T21:50:01.554Z,100472.00
2018-12-20T21:55:04.605Z,100466.67
2018-12-20T22:00:09.502Z,100470.84
2018-12-20T22:05:11.961Z,100465.42
2018-12-20T22:10:14.344Z,100459.62
2018-12-20T22:15:16.922Z,100461.34
2018-12-20T22:20:19.277Z,100455.66
2018-12-20T22:25:21.721Z,100470.27
2018-12-20T22:30:24.251Z,100463.02
2018-12-20T22:35:26.798Z,100468.39
2018-12-20T22:40:30.029Z,100463.52
2018-12-20T22:45:32.305Z,100464.21
2018-12-20T22:50:34.936Z,100472.52
2018-12-20T22:55:37.277Z,100470.63
2018-12-20T23:00:41.823Z,100464.80
2018-12-20T23:05:44.197Z,100475.06
2018-12-20T23:10:46.639Z,100475.45
2018-12-20T23:15:49.341Z,100468.77
2018-12-20T23:20:51.685Z,100456.45
2018-12-20T23:25:54.309Z,100460.53
2018-12-20T23:30:57.105Z,100449.84
2018-12-20T23:35:59.461Z,100445.05
2018-12-20T23:41:02.351Z,100449.45
2018-12-20T23:46:04.685Z,100442.30
2018-12-20T23:51:13.406Z,100438.03
2018-12-20T23:56:11.718Z,100437.93
